sensor_id;sensor_type;location;lat;lon;timestamp;temperature;humidity
64226;DHT22;50545;56.064;26.178;2022-10-18T00:00:55;11.60;99.90
64226;DHT22;50545;56.064;26.178;2022-10-18T00:03:22;11.70;99.90
64226;DHT22;50545;56.064;26.178;2022-10-18T00:05:50;11.70;99.90
64226;DHT22;50545;56.064;26.178;2022-10-18T00:08:18;11.70;99.90
64226;DHT22;50545;56.064;26.178;2022-10-18T00:10:46;11.70;99.90
64226;DHT22;50545;56.064;26.178;2022-10-18T00:13:13;11.70;99.90
64226;DHT22;50545;56.064;26.178;2022-10-18T00:15:52;11.70;99.90
64226;DHT22;50545;56.064;26.178;2022-10-18T00:18:19;11.80;99.90
64226;DHT22;50545;56.064;26.178;2022-10-18T00:21:02;11.70;99.90
64226;DHT22;50545;56.064;26.178;2022-10-18T00:23:31;11.80;99.90
64226;DHT22;50545;56.064;26.178;2022-10-18T00:28:26;11.90;99.90
64226;DHT22;50545;56.064;26.178;2022-10-18T00:30:54;11.90;99.90
64226;DHT22;50545;56.064;26.178;2022-10-18T00:33:21;11.90;99.90
64226;DHT22;50545;56.064;26.178;2022-10-18T00:35:48;11.90;99.90
64226;DHT22;50545;56.064;26.178;2022-10-18T00:38:15;12.00;99.90
64226;DHT22;50545;56.064;26.178;2022-10-18T00:40:43;12.10;99.90
64226;DHT22;50545;56.064;26.178;2022-10-18T00:43:14;12.10;99.90
64226;DHT22;50545;56.064;26.178;2022-10-18T00:45:41;12.10;99.90
64226;DHT22;50545;56.064;26.178;2022-10-18T00:48:09;12.10;99.90
64226;DHT22;50545;56.064;26.178;2022-10-18T00:50:37;12.20;99.90
64226;DHT22;50545;56.064;26.178;2022-10-18T00:53:10;12.30;99.90
64226;DHT22;50545;56.064;26.178;2022-10-18T00:55:38;12.30;99.90
64226;DHT22;50545;56.064;26.178;2022-10-18T00:58:06;12.30;99.90
64226;DHT22;50545;56.064;26.178;2022-10-18T01:00:34;12.40;99.90
64226;DHT22;50545;56.064;26.178;2022-10-18T01:03:06;12.40;99.90
64226;DHT22;50545;56.064;26.178;2022-10-18T01:05:37;12.50;99.90
64226;DHT22;50545;56.064;26.178;2022-10-18T01:08:38;12.60;99.90
64226;DHT22;50545;56.064;26.178;2022-10-18T01:17:31;12.70;99.90
64226;DHT22;50545;56.064;26.178;2022-10-18T01:20:17;12.80;99.90
64226;DHT22;50545;56.064;26.178;2022-10-18T01:22:59;12.80;99.90
64226;DHT22;50545;56.064;26.178;2022-10-18T01:31:46;13.00;99.90
64226;DHT22;50545;56.064;26.178;2022-10-18T01:34:16;13.10;99.90
64226;DHT22;50545;56.064;26.178;2022-10-18T01:36:50;13.10;99.90
64226;DHT22;50545;56.064;26.178;2022-10-18T01:39:26;13.20;99.90
64226;DHT22;50545;56.064;26.178;2022-10-18T01:41:55;13.20;99.90
64226;DHT22;50545;56.064;26.178;2022-10-18T01:44:25;13.20;99.90
64226;DHT22;50545;56.064;26.178;2022-10-18T01:46:55;13.30;99.90
64226;DHT22;50545;56.064;26.178;2022-10-18T01:49:24;13.30;99.90
64226;DHT22;50545;56.064;26.178;2022-10-18T01:51:52;13.30;99.90
64226;DHT22;50545;56.064;26.178;2022-10-18T01:54:29;13.30;99.90
64226;DHT22;50545;56.064;26.178;2022-10-18T01:57:19;13.40;99.90
64226;DHT22;50545;56.064;26.178;2022-10-18T02:02:51;13.50;99.90
64226;DHT22;50545;56.064;26.178;2022-10-18T02:08:36;13.50;99.90
64226;DHT22;50545;56.064;26.178;2022-10-18T02:11:06;13.60;99.90
64226;DHT22;50545;56.064;26.178;2022-10-18T02:16:20;13.60;99.90
64226;DHT22;50545;56.064;26.178;2022-10-18T02:18:54;13.60;99.90
64226;DHT22;50545;56.064;26.178;2022-10-18T02:21:24;13.60;99.90
64226;DHT22;50545;56.064;26.178;2022-10-18T02:23:53;13.60;99.90
64226;DHT22;50545;56.064;26.178;2022-10-18T02:26:21;13.60;99.90
64226;DHT22;50545;56.064;26.178;2022-10-18T02:28:49;13.70;99.90
64226;DHT22;50545;56.064;26.178;2022-10-18T02:31:47;13.70;99.90
64226;DHT22;50545;56.064;26.178;2022-10-18T02:34:26;13.70;99.90
64226;DHT22;50545;56.064;26.178;2022-10-18T02:37:04;13.70;99.90
64226;DHT22;50545;56.064;26.178;2022-10-18T02:39:38;13.70;99.90
64226;DHT22;50545;56.064;26.178;2022-10-18T02:42:09;13.70;99.90
64226;DHT22;50545;56.064;26.178;2022-10-18T02:44:37;13.80;99.90
64226;DHT22;50545;56.064;26.178;2022-10-18T02:47:07;13.80;99.90
64226;DHT22;50545;56.064;26.178;2022-10-18T02:49:34;13.80;99.90
64226;DHT22;50545;56.064;26.178;2022-10-18T02:52:01;13.80;99.90
64226;DHT22;50545;56.064;26.178;2022-10-18T02:54:29;13.80;99.90
64226;DHT22;50545;56.064;26.178;2022-10-18T02:56:56;13.80;99.90
64226;DHT22;50545;56.064;26.178;2022-10-18T02:59:23;13.80;99.90
64226;DHT22;50545;56.064;26.178;2022-10-18T03:01:50;13.90;99.90
64226;DHT22;50545;56.064;26.178;2022-10-18T03:04:18;13.90;99.90
64226;DHT22;50545;56.064;26.178;2022-10-18T03:06:45;14.00;99.90
64226;DHT22;50545;56.064;26.178;2022-10-18T03:09:12;14.00;99.90
64226;DHT22;50545;56.064;26.178;2022-10-18T03:11:39;14.00;99.90
64226;DHT22;50545;56.064;26.178;2022-10-18T03:14:07;14.10;99.90
64226;DHT22;50545;56.064;26.178;2022-10-18T03:16:34;14.10;99.90
64226;DHT22;50545;56.064;26.178;2022-10-18T03:19:01;14.10;99.90
64226;DHT22;50545;56.064;26.178;2022-10-18T03:21:29;14.10;99.90
64226;DHT22;50545;56.064;26.178;2022-10-18T03:23:56;14.20;99.90
64226;DHT22;50545;56.064;26.178;2022-10-18T03:26:25;14.20;99.90
64226;DHT22;50545;56.064;26.178;2022-10-18T03:28:52;14.30;99.90
64226;DHT22;50545;56.064;26.178;2022-10-18T03:31:19;14.30;99.90
64226;DHT22;50545;56.064;26.178;2022-10-18T03:33:46;14.30;99.90
64226;DHT22;50545;56.064;26.178;2022-10-18T03:36:14;14.30;99.90
64226;DHT22;50545;56.064;26.178;2022-10-18T03:38:41;14.40;99.90
64226;DHT22;50545;56.064;26.178;2022-10-18T03:41:09;14.40;99.90
64226;DHT22;50545;56.064;26.178;2022-10-18T03:43:36;14.40;99.90
64226;DHT22;50545;56.064;26.178;2022-10-18T03:46:03;14.40;99.90
64226;DHT22;50545;56.064;26.178;2022-10-18T03:48:31;14.40;99.90
64226;DHT22;50545;56.064;26.178;2022-10-18T03:50:58;14.40;99.90
64226;DHT22;50545;56.064;26.178;2022-10-18T03:53:25;14.40;99.90
64226;DHT22;50545;56.064;26.178;2022-10-18T03:55:53;14.40;99.90
64226;DHT22;50545;56.064;26.178;2022-10-18T03:58:21;14.50;99.90
64226;DHT22;50545;56.064;26.178;2022-10-18T04:00:53;14.50;99.90
64226;DHT22;50545;56.064;26.178;2022-10-18T04:03:21;14.50;99.90
64226;DHT22;50545;56.064;26.178;2022-10-18T04:05:49;14.50;99.90
64226;DHT22;50545;56.064;26.178;2022-10-18T04:08:17;14.60;99.90
64226;DHT22;50545;56.064;26.178;2022-10-18T04:10:44;14.60;99.90
64226;DHT22;50545;56.064;26.178;2022-10-18T04:13:12;14.60;99.90
64226;DHT22;50545;56.064;26.178;2022-10-18T04:15:39;14.60;99.90
64226;DHT22;50545;56.064;26.178;2022-10-18T04:18:07;14.60;99.90
64226;DHT22;50545;56.064;26.178;2022-10-18T04:20:34;14.60;99.90
64226;DHT22;50545;56.064;26.178;2022-10-18T04:23:01;14.60;99.90
64226;DHT22;50545;56.064;26.178;2022-10-18T04:25:28;14.60;99.90
64226;DHT22;50545;56.064;26.178;2022-10-18T04:27:56;14.60;99.90
64226;DHT22;50545;56.064;26.178;2022-10-18T04:30:23;14.60;99.90
64226;DHT22;50545;56.064;26.178;2022-10-18T04:32:50;14.70;99.90
64226;DHT22;50545;56.064;26.178;2022-10-18T04:35:17;14.70;99.90
64226;DHT22;50545;56.064;26.178;2022-10-18T04:37:45;14.70;99.90
64226;DHT22;50545;56.064;26.178;2022-10-18T04:40:13;14.70;99.90
64226;DHT22;50545;56.064;26.178;2022-10-18T04:42:40;14.80;99.90
64226;DHT22;50545;56.064;26.178;2022-10-18T04:45:08;14.80;99.90
64226;DHT22;50545;56.064;26.178;2022-10-18T04:47:35;14.90;99.90
64226;DHT22;50545;56.064;26.178;2022-10-18T04:50:03;14.90;99.90
64226;DHT22;50545;56.064;26.178;2022-10-18T04:52:30;15.00;99.90
64226;DHT22;50545;56.064;26.178;2022-10-18T04:54:58;15.00;99.90
64226;DHT22;50545;56.064;26.178;2022-10-18T04:57:25;15.00;99.90
64226;DHT22;50545;56.064;26.178;2022-10-18T04:59:52;15.00;99.90
64226;DHT22;50545;56.064;26.178;2022-10-18T05:02:19;15.00;99.90
64226;DHT22;50545;56.064;26.178;2022-10-18T05:04:47;15.00;99.90
64226;DHT22;50545;56.064;26.178;2022-10-18T05:07:14;15.00;99.90
64226;DHT22;50545;56.064;26.178;2022-10-18T05:09:41;15.10;99.90
64226;DHT22;50545;56.064;26.178;2022-10-18T05:12:08;15.10;99.90
64226;DHT22;50545;56.064;26.178;2022-10-18T05:14:36;15.10;99.90
64226;DHT22;50545;56.064;26.178;2022-10-18T05:17:03;15.10;99.90
64226;DHT22;50545;56.064;26.178;2022-10-18T05:19:30;15.10;99.90
64226;DHT22;50545;56.064;26.178;2022-10-18T05:21:57;15.10;99.90
64226;DHT22;50545;56.064;26.178;2022-10-18T05:24:24;15.20;99.90
64226;DHT22;50545;56.064;26.178;2022-10-18T05:26:53;15.10;99.90
64226;DHT22;50545;56.064;26.178;2022-10-18T05:29:21;15.10;99.90
64226;DHT22;50545;56.064;26.178;2022-10-18T05:31:48;15.20;99.90
64226;DHT22;50545;56.064;26.178;2022-10-18T05:34:16;15.20;99.90
64226;DHT22;50545;56.064;26.178;2022-10-18T05:36:44;15.20;99.90
64226;DHT22;50545;56.064;26.178;2022-10-18T05:39:11;15.20;99.90
64226;DHT22;50545;56.064;26.178;2022-10-18T05:41:38;15.20;99.90
64226;DHT22;50545;56.064;26.178;2022-10-18T05:44:05;15.20;99.90
64226;DHT22;50545;56.064;26.178;2022-10-18T05:46:32;15.20;99.90
64226;DHT22;50545;56.064;26.178;2022-10-18T05:49:00;15.20;99.90
64226;DHT22;50545;56.064;26.178;2022-10-18T05:51:27;15.20;99.90
64226;DHT22;50545;56.064;26.178;2022-10-18T05:53:54;15.20;99.90
64226;DHT22;50545;56.064;26.178;2022-10-18T05:56:21;15.30;99.90
64226;DHT22;50545;56.064;26.178;2022-10-18T05:58:50;15.30;99.90
64226;DHT22;50545;56.064;26.178;2022-10-18T06:01:17;15.30;99.90
64226;DHT22;50545;56.064;26.178;2022-10-18T06:03:45;15.30;99.90
64226;DHT22;50545;56.064;26.178;2022-10-18T06:06:13;15.30;99.90
64226;DHT22;50545;56.064;26.178;2022-10-18T06:08:42;15.30;99.90
64226;DHT22;50545;56.064;26.178;2022-10-18T06:11:15;15.30;99.90
64226;DHT22;50545;56.064;26.178;2022-10-18T06:13:44;15.30;99.90
64226;DHT22;50545;56.064;26.178;2022-10-18T06:16:14;15.30;99.90
64226;DHT22;50545;56.064;26.178;2022-10-18T06:18:42;15.30;99.90
64226;DHT22;50545;56.064;26.178;2022-10-18T06:21:09;15.20;99.90
64226;DHT22;50545;56.064;26.178;2022-10-18T06:23:36;15.30;99.90
64226;DHT22;50545;56.064;26.178;2022-10-18T06:26:06;15.30;99.90
64226;DHT22;50545;56.064;26.178;2022-10-18T06:28:34;15.20;99.90
64226;DHT22;50545;56.064;26.178;2022-10-18T06:31:03;15.20;99.90
64226;DHT22;50545;56.064;26.178;2022-10-18T06:33:31;15.20;99.90
64226;DHT22;50545;56.064;26.178;2022-10-18T06:36:02;15.20;99.90
64226;DHT22;50545;56.064;26.178;2022-10-18T06:38:29;15.20;99.90
64226;DHT22;50545;56.064;26.178;2022-10-18T06:40:57;15.20;99.90
64226;DHT22;50545;56.064;26.178;2022-10-18T06:43:25;15.20;99.90
64226;DHT22;50545;56.064;26.178;2022-10-18T06:45:53;15.20;99.90
64226;DHT22;50545;56.064;26.178;2022-10-18T06:48:21;15.20;99.90
64226;DHT22;50545;56.064;26.178;2022-10-18T06:50:59;15.20;99.90
64226;DHT22;50545;56.064;26.178;2022-10-18T06:53:29;15.20;99.90
64226;DHT22;50545;56.064;26.178;2022-10-18T06:56:07;15.20;99.90
64226;DHT22;50545;56.064;26.178;2022-10-18T06:58:36;15.20;99.90
64226;DHT22;50545;56.064;26.178;2022-10-18T07:01:09;15.20;99.90
64226;DHT22;50545;56.064;26.178;2022-10-18T07:03:36;15.20;99.90
64226;DHT22;50545;56.064;26.178;2022-10-18T07:06:05;15.20;99.90
64226;DHT22;50545;56.064;26.178;2022-10-18T07:08:34;15.20;99.90
64226;DHT22;50545;56.064;26.178;2022-10-18T07:11:02;15.20;99.90
64226;DHT22;50545;56.064;26.178;2022-10-18T07:13:30;15.20;99.90
64226;DHT22;50545;56.064;26.178;2022-10-18T07:16:08;15.20;99.90
64226;DHT22;50545;56.064;26.178;2022-10-18T07:18:46;15.30;99.90
64226;DHT22;50545;56.064;26.178;2022-10-18T07:21:14;15.40;99.90
64226;DHT22;50545;56.064;26.178;2022-10-18T07:23:43;15.50;99.90
64226;DHT22;50545;56.064;26.178;2022-10-18T07:26:23;15.60;99.90
64226;DHT22;50545;56.064;26.178;2022-10-18T07:28:54;15.60;99.90
64226;DHT22;50545;56.064;26.178;2022-10-18T07:31:22;15.60;99.90
64226;DHT22;50545;56.064;26.178;2022-10-18T07:33:50;15.60;99.90
64226;DHT22;50545;56.064;26.178;2022-10-18T07:36:19;15.60;99.90
64226;DHT22;50545;56.064;26.178;2022-10-18T07:38:48;15.60;99.90
64226;DHT22;50545;56.064;26.178;2022-10-18T07:41:15;15.60;99.90
64226;DHT22;50545;56.064;26.178;2022-10-18T07:43:49;15.60;99.90
64226;DHT22;50545;56.064;26.178;2022-10-18T07:46:18;15.50;99.90
64226;DHT22;50545;56.064;26.178;2022-10-18T07:48:46;15.50;99.90
64226;DHT22;50545;56.064;26.178;2022-10-18T07:51:13;15.50;99.90
64226;DHT22;50545;56.064;26.178;2022-10-18T07:53:41;15.50;99.90
64226;DHT22;50545;56.064;26.178;2022-10-18T07:56:10;15.50;99.90
64226;DHT22;50545;56.064;26.178;2022-10-18T07:58:43;15.50;99.90
64226;DHT22;50545;56.064;26.178;2022-10-18T08:01:11;15.50;99.90
64226;DHT22;50545;56.064;26.178;2022-10-18T08:03:40;15.50;99.90
64226;DHT22;50545;56.064;26.178;2022-10-18T08:06:09;15.50;99.90
64226;DHT22;50545;56.064;26.178;2022-10-18T08:08:38;15.50;99.90
64226;DHT22;50545;56.064;26.178;2022-10-18T08:11:17;15.40;99.90
64226;DHT22;50545;56.064;26.178;2022-10-18T08:13:45;15.40;99.90
64226;DHT22;50545;56.064;26.178;2022-10-18T08:16:15;15.40;99.90
64226;DHT22;50545;56.064;26.178;2022-10-18T08:18:43;15.40;99.90
64226;DHT22;50545;56.064;26.178;2022-10-18T08:21:12;15.30;99.90
64226;DHT22;50545;56.064;26.178;2022-10-18T08:23:40;15.30;99.90
64226;DHT22;50545;56.064;26.178;2022-10-18T08:26:13;15.30;99.90
64226;DHT22;50545;56.064;26.178;2022-10-18T08:28:42;15.20;99.90
64226;DHT22;50545;56.064;26.178;2022-10-18T08:31:24;15.30;99.90
64226;DHT22;50545;56.064;26.178;2022-10-18T08:33:54;15.30;99.90
64226;DHT22;50545;56.064;26.178;2022-10-18T08:36:22;15.30;99.90
64226;DHT22;50545;56.064;26.178;2022-10-18T08:38:50;15.30;99.90
64226;DHT22;50545;56.064;26.178;2022-10-18T08:44:29;15.40;99.90
64226;DHT22;50545;56.064;26.178;2022-10-18T08:47:06;15.40;99.90
64226;DHT22;50545;56.064;26.178;2022-10-18T08:49:57;15.30;99.90
64226;DHT22;50545;56.064;26.178;2022-10-18T08:55:21;15.40;99.90
64226;DHT22;50545;56.064;26.178;2022-10-18T08:57:50;15.40;99.90
64226;DHT22;50545;56.064;26.178;2022-10-18T09:00:24;15.50;99.90
64226;DHT22;50545;56.064;26.178;2022-10-18T09:03:28;15.60;99.90
64226;DHT22;50545;56.064;26.178;2022-10-18T09:09:21;15.60;99.90
64226;DHT22;50545;56.064;26.178;2022-10-18T09:20:56;15.60;99.90
64226;DHT22;50545;56.064;26.178;2022-10-18T09:23:47;15.60;99.90
64226;DHT22;50545;56.064;26.178;2022-10-18T09:26:20;15.70;99.90
64226;DHT22;50545;56.064;26.178;2022-10-18T09:29:06;15.80;99.90
64226;DHT22;50545;56.064;26.178;2022-10-18T09:34:38;15.80;99.90
64226;DHT22;50545;56.064;26.178;2022-10-18T09:37:14;15.80;99.90
64226;DHT22;50545;56.064;26.178;2022-10-18T09:39:44;15.90;99.90
64226;DHT22;50545;56.064;26.178;2022-10-18T09:45:12;16.10;98.80
64226;DHT22;50545;56.064;26.178;2022-10-18T09:48:12;16.00;97.80
64226;DHT22;50545;56.064;26.178;2022-10-18T09:50:55;16.10;98.10
64226;DHT22;50545;56.064;26.178;2022-10-18T10:01:57;15.90;92.20
64226;DHT22;50545;56.064;26.178;2022-10-18T10:04:25;15.90;93.30
64226;DHT22;50545;56.064;26.178;2022-10-18T10:06:54;15.90;93.90
64226;DHT22;50545;56.064;26.178;2022-10-18T10:09:30;15.90;87.80
64226;DHT22;50545;56.064;26.178;2022-10-18T10:12:02;15.80;90.10
64226;DHT22;50545;56.064;26.178;2022-10-18T10:14:29;15.80;87.90
64226;DHT22;50545;56.064;26.178;2022-10-18T10:17:00;15.80;88.20
64226;DHT22;50545;56.064;26.178;2022-10-18T10:19:35;15.70;90.10
64226;DHT22;50545;56.064;26.178;2022-10-18T10:22:10;15.80;88.80
64226;DHT22;50545;56.064;26.178;2022-10-18T10:24:45;15.90;91.60
64226;DHT22;50545;56.064;26.178;2022-10-18T10:27:19;16.00;89.50
64226;DHT22;50545;56.064;26.178;2022-10-18T10:29:50;16.10;88.10
64226;DHT22;50545;56.064;26.178;2022-10-18T10:32:21;16.00;90.10
64226;DHT22;50545;56.064;26.178;2022-10-18T10:34:50;16.10;86.60
64226;DHT22;50545;56.064;26.178;2022-10-18T10:37:38;16.00;84.20
64226;DHT22;50545;56.064;26.178;2022-10-18T10:40:22;15.90;85.50
64226;DHT22;50545;56.064;26.178;2022-10-18T10:43:00;16.00;88.10
64226;DHT22;50545;56.064;26.178;2022-10-18T10:46:15;15.90;84.90
64226;DHT22;50545;56.064;26.178;2022-10-18T10:48:57;15.90;80.40
64226;DHT22;50545;56.064;26.178;2022-10-18T10:51:45;15.80;79.20
64226;DHT22;50545;56.064;26.178;2022-10-18T10:54:39;15.80;75.50
64226;DHT22;50545;56.064;26.178;2022-10-18T10:57:24;15.70;75.70
64226;DHT22;50545;56.064;26.178;2022-10-18T10:59:55;15.70;74.50
64226;DHT22;50545;56.064;26.178;2022-10-18T11:02:30;15.70;75.30
64226;DHT22;50545;56.064;26.178;2022-10-18T11:05:24;15.70;76.10
64226;DHT22;50545;56.064;26.178;2022-10-18T11:07:55;15.60;77.00
64226;DHT22;50545;56.064;26.178;2022-10-18T11:10:28;15.60;78.70
64226;DHT22;50545;56.064;26.178;2022-10-18T11:16:19;15.50;80.10
64226;DHT22;50545;56.064;26.178;2022-10-18T11:18:48;15.50;81.20
64226;DHT22;50545;56.064;26.178;2022-10-18T11:21:21;15.50;82.20
64226;DHT22;50545;56.064;26.178;2022-10-18T11:23:50;15.50;83.30
64226;DHT22;50545;56.064;26.178;2022-10-18T11:27:02;15.50;81.10
64226;DHT22;50545;56.064;26.178;2022-10-18T11:29:48;15.40;81.00
64226;DHT22;50545;56.064;26.178;2022-10-18T11:43:33;15.20;79.90
64226;DHT22;50545;56.064;26.178;2022-10-18T11:47:03;15.20;82.00
64226;DHT22;50545;56.064;26.178;2022-10-18T11:52:29;15.10;82.70
64226;DHT22;50545;56.064;26.178;2022-10-18T11:55:19;15.00;82.60
64226;DHT22;50545;56.064;26.178;2022-10-18T12:04:25;14.90;83.70
64226;DHT22;50545;56.064;26.178;2022-10-18T12:06:55;14.80;84.00
64226;DHT22;50545;56.064;26.178;2022-10-18T12:09:38;14.80;85.40
64226;DHT22;50545;56.064;26.178;2022-10-18T12:14:45;14.80;84.90
64226;DHT22;50545;56.064;26.178;2022-10-18T12:20:16;14.90;86.80
64226;DHT22;50545;56.064;26.178;2022-10-18T12:23:11;15.00;80.60
64226;DHT22;50545;56.064;26.178;2022-10-18T12:25:44;15.00;80.80
64226;DHT22;50545;56.064;26.178;2022-10-18T12:33:58;15.00;79.60
64226;DHT22;50545;56.064;26.178;2022-10-18T12:39:38;14.80;78.80
64226;DHT22;50545;56.064;26.178;2022-10-18T12:42:29;14.80;79.80
64226;DHT22;50545;56.064;26.178;2022-10-18T12:45:16;14.70;79.00
64226;DHT22;50545;56.064;26.178;2022-10-18T12:47:45;14.70;79.20
64226;DHT22;50545;56.064;26.178;2022-10-18T12:50:29;14.70;79.30
64226;DHT22;50545;56.064;26.178;2022-10-18T12:53:17;14.60;79.80
64226;DHT22;50545;56.064;26.178;2022-10-18T12:55:48;14.50;80.20
64226;DHT22;50545;56.064;26.178;2022-10-18T12:58:28;14.50;79.60
64226;DHT22;50545;56.064;26.178;2022-10-18T13:01:01;14.50;81.10
64226;DHT22;50545;56.064;26.178;2022-10-18T13:03:50;14.40;78.40
64226;DHT22;50545;56.064;26.178;2022-10-18T13:06:18;14.40;79.40
64226;DHT22;50545;56.064;26.178;2022-10-18T13:08:46;14.30;80.70
64226;DHT22;50545;56.064;26.178;2022-10-18T13:11:31;14.30;79.80
64226;DHT22;50545;56.064;26.178;2022-10-18T13:14:24;14.30;79.50
64226;DHT22;50545;56.064;26.178;2022-10-18T13:17:11;14.20;81.20
64226;DHT22;50545;56.064;26.178;2022-10-18T13:19:53;14.20;81.10
64226;DHT22;50545;56.064;26.178;2022-10-18T13:34:30;13.90;82.90
64226;DHT22;50545;56.064;26.178;2022-10-18T13:37:21;13.90;82.70
64226;DHT22;50545;56.064;26.178;2022-10-18T13:40:12;13.90;83.20
64226;DHT22;50545;56.064;26.178;2022-10-18T13:42:39;13.90;82.50
64226;DHT22;50545;56.064;26.178;2022-10-18T13:53:50;13.80;82.70
64226;DHT22;50545;56.064;26.178;2022-10-18T14:13:55;13.50;84.20
64226;DHT22;50545;56.064;26.178;2022-10-18T14:19:24;13.50;83.20
64226;DHT22;50545;56.064;26.178;2022-10-18T14:24:48;13.40;84.40
64226;DHT22;50545;56.064;26.178;2022-10-18T14:27:27;13.40;84.70
64226;DHT22;50545;56.064;26.178;2022-10-18T14:32:47;13.30;83.40
64226;DHT22;50545;56.064;26.178;2022-10-18T14:35:36;13.30;83.40
64226;DHT22;50545;56.064;26.178;2022-10-18T14:38:10;13.20;84.60
64226;DHT22;50545;56.064;26.178;2022-10-18T14:40:39;13.10;83.90
64226;DHT22;50545;56.064;26.178;2022-10-18T14:43:12;13.10;84.90
64226;DHT22;50545;56.064;26.178;2022-10-18T14:45:40;13.00;85.30
64226;DHT22;50545;56.064;26.178;2022-10-18T14:48:15;12.90;86.40
64226;DHT22;50545;56.064;26.178;2022-10-18T14:50:45;12.80;86.90
64226;DHT22;50545;56.064;26.178;2022-10-18T14:53:15;12.70;87.80
64226;DHT22;50545;56.064;26.178;2022-10-18T14:55:54;12.70;88.40
64226;DHT22;50545;56.064;26.178;2022-10-18T14:58:22;12.60;89.10
64226;DHT22;50545;56.064;26.178;2022-10-18T15:00:49;12.50;90.10
64226;DHT22;50545;56.064;26.178;2022-10-18T15:03:17;12.50;90.60
64226;DHT22;50545;56.064;26.178;2022-10-18T15:06:14;12.40;91.00
64226;DHT22;50545;56.064;26.178;2022-10-18T15:08:42;12.40;91.30
64226;DHT22;50545;56.064;26.178;2022-10-18T15:11:10;12.40;91.60
64226;DHT22;50545;56.064;26.178;2022-10-18T15:13:56;12.40;92.30
64226;DHT22;50545;56.064;26.178;2022-10-18T15:16:28;12.30;92.60
64226;DHT22;50545;56.064;26.178;2022-10-18T15:19:05;12.30;93.00
64226;DHT22;50545;56.064;26.178;2022-10-18T15:21:34;12.20;93.20
64226;DHT22;50545;56.064;26.178;2022-10-18T15:24:20;12.20;93.70
64226;DHT22;50545;56.064;26.178;2022-10-18T15:27:01;12.20;94.30
64226;DHT22;50545;56.064;26.178;2022-10-18T15:29:30;12.10;95.00
64226;DHT22;50545;56.064;26.178;2022-10-18T15:32:14;12.10;95.40
64226;DHT22;50545;56.064;26.178;2022-10-18T15:34:42;12.10;95.40
64226;DHT22;50545;56.064;26.178;2022-10-18T15:37:31;12.00;96.10
64226;DHT22;50545;56.064;26.178;2022-10-18T15:42:55;12.00;96.10
64226;DHT22;50545;56.064;26.178;2022-10-18T15:48:22;11.90;97.00
64226;DHT22;50545;56.064;26.178;2022-10-18T15:50:53;11.90;97.70
64226;DHT22;50545;56.064;26.178;2022-10-18T15:58:27;11.80;98.20
64226;DHT22;50545;56.064;26.178;2022-10-18T16:00:59;11.80;98.50
64226;DHT22;50545;56.064;26.178;2022-10-18T16:03:27;11.70;98.60
64226;DHT22;50545;56.064;26.178;2022-10-18T16:06:02;11.70;98.50
64226;DHT22;50545;56.064;26.178;2022-10-18T16:08:30;11.70;98.90
64226;DHT22;50545;56.064;26.178;2022-10-18T16:10:58;11.70;98.80
64226;DHT22;50545;56.064;26.178;2022-10-18T16:13:26;11.70;98.20
64226;DHT22;50545;56.064;26.178;2022-10-18T16:15:54;11.70;99.30
64226;DHT22;50545;56.064;26.178;2022-10-18T16:18:23;11.70;98.70
64226;DHT22;50545;56.064;26.178;2022-10-18T16:20:51;11.60;98.20
64226;DHT22;50545;56.064;26.178;2022-10-18T16:23:24;11.70;96.90
64226;DHT22;50545;56.064;26.178;2022-10-18T16:25:52;11.70;97.10
64226;DHT22;50545;56.064;26.178;2022-10-18T16:28:21;11.70;97.00
64226;DHT22;50545;56.064;26.178;2022-10-18T16:30:58;11.60;96.70
64226;DHT22;50545;56.064;26.178;2022-10-18T16:33:26;11.70;96.10
64226;DHT22;50545;56.064;26.178;2022-10-18T16:35:54;11.70;96.00
64226;DHT22;50545;56.064;26.178;2022-10-18T16:38:29;11.70;95.20
64226;DHT22;50545;56.064;26.178;2022-10-18T16:41:02;11.70;94.60
64226;DHT22;50545;56.064;26.178;2022-10-18T16:43:30;11.70;95.10
64226;DHT22;50545;56.064;26.178;2022-10-18T16:45:58;11.70;94.10
64226;DHT22;50545;56.064;26.178;2022-10-18T16:48:25;11.70;93.50
64226;DHT22;50545;56.064;26.178;2022-10-18T16:50:54;11.70;93.60
64226;DHT22;50545;56.064;26.178;2022-10-18T16:53:22;11.70;94.30
64226;DHT22;50545;56.064;26.178;2022-10-18T16:55:53;11.70;93.50
64226;DHT22;50545;56.064;26.178;2022-10-18T16:58:22;11.70;93.20
64226;DHT22;50545;56.064;26.178;2022-10-18T17:00:55;11.70;93.10
64226;DHT22;50545;56.064;26.178;2022-10-18T17:03:23;11.70;92.30
64226;DHT22;50545;56.064;26.178;2022-10-18T17:05:50;11.70;92.80
64226;DHT22;50545;56.064;26.178;2022-10-18T17:08:20;11.70;93.30
64226;DHT22;50545;56.064;26.178;2022-10-18T17:10:49;11.70;93.20
64226;DHT22;50545;56.064;26.178;2022-10-18T17:13:19;11.60;93.20
64226;DHT22;50545;56.064;26.178;2022-10-18T17:15:46;11.70;93.10
64226;DHT22;50545;56.064;26.178;2022-10-18T17:18:20;11.60;93.30
64226;DHT22;50545;56.064;26.178;2022-10-18T17:20:48;11.60;93.00
64226;DHT22;50545;56.064;26.178;2022-10-18T17:23:16;11.70;93.10
64226;DHT22;50545;56.064;26.178;2022-10-18T17:25:44;11.60;93.80
64226;DHT22;50545;56.064;26.178;2022-10-18T17:28:32;11.60;93.90
64226;DHT22;50545;56.064;26.178;2022-10-18T17:30:59;11.60;93.90
64226;DHT22;50545;56.064;26.178;2022-10-18T17:33:27;11.60;93.60
64226;DHT22;50545;56.064;26.178;2022-10-18T17:35:54;11.60;94.80
64226;DHT22;50545;56.064;26.178;2022-10-18T17:38:21;11.50;94.50
64226;DHT22;50545;56.064;26.178;2022-10-18T17:40:48;11.60;95.60
64226;DHT22;50545;56.064;26.178;2022-10-18T17:43:18;11.50;96.10
64226;DHT22;50545;56.064;26.178;2022-10-18T17:45:52;11.60;94.90
64226;DHT22;50545;56.064;26.178;2022-10-18T17:48:20;11.50;96.10
64226;DHT22;50545;56.064;26.178;2022-10-18T17:50:48;11.50;96.00
64226;DHT22;50545;56.064;26.178;2022-10-18T17:53:15;11.50;95.10
64226;DHT22;50545;56.064;26.178;2022-10-18T17:55:44;11.50;95.30
64226;DHT22;50545;56.064;26.178;2022-10-18T17:58:11;11.50;94.20
64226;DHT22;50545;56.064;26.178;2022-10-18T18:00:38;11.50;95.70
64226;DHT22;50545;56.064;26.178;2022-10-18T18:03:05;11.50;94.80
64226;DHT22;50545;56.064;26.178;2022-10-18T18:05:33;11.50;94.40
64226;DHT22;50545;56.064;26.178;2022-10-18T18:08:00;11.50;95.30
64226;DHT22;50545;56.064;26.178;2022-10-18T18:10:32;11.50;94.60
64226;DHT22;50545;56.064;26.178;2022-10-18T18:13:00;11.50;94.50
64226;DHT22;50545;56.064;26.178;2022-10-18T18:15:28;11.40;95.20
64226;DHT22;50545;56.064;26.178;2022-10-18T18:17:55;11.40;94.60